sensor_id;sensor_type;location;lat;lon;timestamp;temperature;humidity
19945;DHT22;10134;50.952;6.930;2022-10-16T00:00:58;16.10;99.90
19945;DHT22;10134;50.952;6.930;2022-10-16T00:03:31;16.10;99.90
19945;DHT22;10134;50.952;6.930;2022-10-16T00:05:59;16.10;99.90
19945;DHT22;10134;50.952;6.930;2022-10-16T00:08:27;16.10;99.90
19945;DHT22;10134;50.952;6.930;2022-10-16T00:11:17;16.10;99.90
19945;DHT22;10134;50.952;6.930;2022-10-16T00:13:47;16.10;99.90
19945;DHT22;10134;50.952;6.930;2022-10-16T00:16:16;16.10;99.90
19945;DHT22;10134;50.952;6.930;2022-10-16T00:18:43;16.10;99.90
19945;DHT22;10134;50.952;6.930;2022-10-16T00:21:14;16.10;99.90
19945;DHT22;10134;50.952;6.930;2022-10-16T00:23:42;16.00;99.90
19945;DHT22;10134;50.952;6.930;2022-10-16T00:26:13;16.00;99.90
19945;DHT22;10134;50.952;6.930;2022-10-16T00:28:41;16.00;99.90
19945;DHT22;10134;50.952;6.930;2022-10-16T00:31:11;16.00;99.90
19945;DHT22;10134;50.952;6.930;2022-10-16T00:33:40;16.00;99.90
19945;DHT22;10134;50.952;6.930;2022-10-16T00:36:10;16.00;99.90
19945;DHT22;10134;50.952;6.930;2022-10-16T00:38:38;16.00;99.90
19945;DHT22;10134;50.952;6.930;2022-10-16T00:41:07;15.90;99.90
19945;DHT22;10134;50.952;6.930;2022-10-16T00:49:15;15.80;99.90
19945;DHT22;10134;50.952;6.930;2022-10-16T00:51:48;15.90;99.90
19945;DHT22;10134;50.952;6.930;2022-10-16T00:54:29;15.80;99.90
19945;DHT22;10134;50.952;6.930;2022-10-16T00:57:00;15.80;99.90
19945;DHT22;10134;50.952;6.930;2022-10-16T00:59:31;15.80;99.90
19945;DHT22;10134;50.952;6.930;2022-10-16T01:02:00;15.80;99.90
19945;DHT22;10134;50.952;6.930;2022-10-16T01:04:32;15.80;99.90
19945;DHT22;10134;50.952;6.930;2022-10-16T01:13:05;15.70;99.90
19945;DHT22;10134;50.952;6.930;2022-10-16T01:20:58;15.70;99.90
19945;DHT22;10134;50.952;6.930;2022-10-16T01:23:55;15.70;99.90
19945;DHT22;10134;50.952;6.930;2022-10-16T01:30:13;15.70;99.90
19945;DHT22;10134;50.952;6.930;2022-10-16T01:32:56;15.70;99.90
19945;DHT22;10134;50.952;6.930;2022-10-16T01:35:38;15.70;99.90
19945;DHT22;10134;50.952;6.930;2022-10-16T01:38:14;15.70;99.90
19945;DHT22;10134;50.952;6.930;2022-10-16T01:40:47;15.70;99.90
19945;DHT22;10134;50.952;6.930;2022-10-16T01:43:31;15.70;99.90
19945;DHT22;10134;50.952;6.930;2022-10-16T01:46:01;15.70;99.90
19945;DHT22;10134;50.952;6.930;2022-10-16T01:48:29;15.70;99.90
19945;DHT22;10134;50.952;6.930;2022-10-16T01:51:10;15.70;99.90
19945;DHT22;10134;50.952;6.930;2022-10-16T01:53:40;15.70;99.90
19945;DHT22;10134;50.952;6.930;2022-10-16T01:56:11;15.70;99.90
19945;DHT22;10134;50.952;6.930;2022-10-16T01:58:47;15.70;99.90
19945;DHT22;10134;50.952;6.930;2022-10-16T02:01:16;15.70;99.90
19945;DHT22;10134;50.952;6.930;2022-10-16T02:03:46;15.70;99.90
19945;DHT22;10134;50.952;6.930;2022-10-16T02:06:17;15.70;99.90
19945;DHT22;10134;50.952;6.930;2022-10-16T02:08:44;15.70;99.90
19945;DHT22;10134;50.952;6.930;2022-10-16T02:11:11;15.70;99.90
19945;DHT22;10134;50.952;6.930;2022-10-16T02:13:43;15.70;99.90
19945;DHT22;10134;50.952;6.930;2022-10-16T02:16:13;15.70;99.90
19945;DHT22;10134;50.952;6.930;2022-10-16T02:18:42;15.70;99.90
19945;DHT22;10134;50.952;6.930;2022-10-16T02:21:22;15.70;99.90
19945;DHT22;10134;50.952;6.930;2022-10-16T02:24:03;15.80;99.90
19945;DHT22;10134;50.952;6.930;2022-10-16T02:26:43;15.80;99.90
19945;DHT22;10134;50.952;6.930;2022-10-16T02:29:16;15.80;99.90
19945;DHT22;10134;50.952;6.930;2022-10-16T02:31:48;15.80;99.90
19945;DHT22;10134;50.952;6.930;2022-10-16T02:34:19;15.80;99.90
19945;DHT22;10134;50.952;6.930;2022-10-16T02:36:48;15.80;99.90
19945;DHT22;10134;50.952;6.930;2022-10-16T02:39:18;15.80;99.90
19945;DHT22;10134;50.952;6.930;2022-10-16T02:41:46;15.80;99.90
19945;DHT22;10134;50.952;6.930;2022-10-16T02:44:14;15.80;99.90
19945;DHT22;10134;50.952;6.930;2022-10-16T02:46:41;15.80;99.90
19945;DHT22;10134;50.952;6.930;2022-10-16T02:49:08;15.80;99.90
19945;DHT22;10134;50.952;6.930;2022-10-16T02:51:36;15.80;99.90
19945;DHT22;10134;50.952;6.930;2022-10-16T02:54:03;15.80;99.90
19945;DHT22;10134;50.952;6.930;2022-10-16T02:56:30;15.80;99.90
19945;DHT22;10134;50.952;6.930;2022-10-16T02:58:58;15.80;99.90
19945;DHT22;10134;50.952;6.930;2022-10-16T03:01:25;15.80;99.90
19945;DHT22;10134;50.952;6.930;2022-10-16T03:03:52;15.80;99.90
19945;DHT22;10134;50.952;6.930;2022-10-16T03:06:20;15.80;99.90
19945;DHT22;10134;50.952;6.930;2022-10-16T03:08:47;15.80;99.90
19945;DHT22;10134;50.952;6.930;2022-10-16T03:11:14;15.80;99.90
19945;DHT22;10134;50.952;6.930;2022-10-16T03:13:42;15.80;99.90
19945;DHT22;10134;50.952;6.930;2022-10-16T03:16:09;15.70;99.90
19945;DHT22;10134;50.952;6.930;2022-10-16T03:18:36;15.80;99.90
19945;DHT22;10134;50.952;6.930;2022-10-16T03:21:03;15.70;99.90
19945;DHT22;10134;50.952;6.930;2022-10-16T03:23:31;15.70;99.90
19945;DHT22;10134;50.952;6.930;2022-10-16T03:25:58;15.70;99.90
19945;DHT22;10134;50.952;6.930;2022-10-16T03:28:25;15.70;99.90
19945;DHT22;10134;50.952;6.930;2022-10-16T03:30:53;15.70;99.90
19945;DHT22;10134;50.952;6.930;2022-10-16T03:33:20;15.60;99.90
19945;DHT22;10134;50.952;6.930;2022-10-16T03:35:54;15.60;99.90
19945;DHT22;10134;50.952;6.930;2022-10-16T03:38:21;15.60;99.90
19945;DHT22;10134;50.952;6.930;2022-10-16T03:40:49;15.60;99.90
19945;DHT22;10134;50.952;6.930;2022-10-16T03:43:16;15.60;99.90
19945;DHT22;10134;50.952;6.930;2022-10-16T03:45:43;15.60;99.90
19945;DHT22;10134;50.952;6.930;2022-10-16T03:48:10;15.60;99.90
19945;DHT22;10134;50.952;6.930;2022-10-16T03:50:38;15.60;99.90
19945;DHT22;10134;50.952;6.930;2022-10-16T03:53:05;15.60;99.90
19945;DHT22;10134;50.952;6.930;2022-10-16T03:55:32;15.60;99.90
19945;DHT22;10134;50.952;6.930;2022-10-16T03:58:00;15.60;99.90
19945;DHT22;10134;50.952;6.930;2022-10-16T04:00:27;15.60;99.90
19945;DHT22;10134;50.952;6.930;2022-10-16T04:02:55;15.60;99.90
19945;DHT22;10134;50.952;6.930;2022-10-16T04:05:24;15.70;99.90
19945;DHT22;10134;50.952;6.930;2022-10-16T04:07:52;15.70;99.90
19945;DHT22;10134;50.952;6.930;2022-10-16T04:10:19;15.70;99.90
19945;DHT22;10134;50.952;6.930;2022-10-16T04:12:46;15.70;99.90
19945;DHT22;10134;50.952;6.930;2022-10-16T04:15:14;15.70;99.90
19945;DHT22;10134;50.952;6.930;2022-10-16T04:17:41;15.70;99.90
19945;DHT22;10134;50.952;6.930;2022-10-16T04:20:08;15.70;99.90
19945;DHT22;10134;50.952;6.930;2022-10-16T04:22:36;15.70;99.90
19945;DHT22;10134;50.952;6.930;2022-10-16T04:25:03;15.70;99.90
19945;DHT22;10134;50.952;6.930;2022-10-16T04:27:31;15.60;99.90
19945;DHT22;10134;50.952;6.930;2022-10-16T04:29:59;15.60;99.90
19945;DHT22;10134;50.952;6.930;2022-10-16T04:32:27;15.60;99.90
19945;DHT22;10134;50.952;6.930;2022-10-16T04:34:54;15.60;99.90
19945;DHT22;10134;50.952;6.930;2022-10-16T04:37:25;15.60;99.90
19945;DHT22;10134;50.952;6.930;2022-10-16T04:39:53;15.60;99.90
19945;DHT22;10134;50.952;6.930;2022-10-16T04:42:21;15.60;99.90
19945;DHT22;10134;50.952;6.930;2022-10-16T04:44:48;15.60;99.90
19945;DHT22;10134;50.952;6.930;2022-10-16T04:47:15;15.60;99.90
19945;DHT22;10134;50.952;6.930;2022-10-16T04:49:43;15.60;99.90
19945;DHT22;10134;50.952;6.930;2022-10-16T04:52:10;15.60;99.90
19945;DHT22;10134;50.952;6.930;2022-10-16T04:54:37;15.60;99.90
19945;DHT22;10134;50.952;6.930;2022-10-16T04:57:05;15.60;99.90
19945;DHT22;10134;50.952;6.930;2022-10-16T04:59:32;15.60;99.90
19945;DHT22;10134;50.952;6.930;2022-10-16T05:01:59;15.60;99.90
19945;DHT22;10134;50.952;6.930;2022-10-16T05:04:26;15.60;99.90
19945;DHT22;10134;50.952;6.930;2022-10-16T05:06:54;15.60;99.90
19945;DHT22;10134;50.952;6.930;2022-10-16T05:09:21;15.60;99.90
19945;DHT22;10134;50.952;6.930;2022-10-16T05:11:48;15.50;99.90
19945;DHT22;10134;50.952;6.930;2022-10-16T05:14:16;15.60;99.90
19945;DHT22;10134;50.952;6.930;2022-10-16T05:16:43;15.60;99.90
19945;DHT22;10134;50.952;6.930;2022-10-16T05:19:11;15.60;99.90
19945;DHT22;10134;50.952;6.930;2022-10-16T05:21:55;15.60;99.90
19945;DHT22;10134;50.952;6.930;2022-10-16T05:24:22;15.70;99.90
19945;DHT22;10134;50.952;6.930;2022-10-16T05:26:50;15.70;99.90
19945;DHT22;10134;50.952;6.930;2022-10-16T05:29:18;15.70;99.90
19945;DHT22;10134;50.952;6.930;2022-10-16T05:31:46;15.70;99.90
19945;DHT22;10134;50.952;6.930;2022-10-16T05:34:13;15.70;99.90
19945;DHT22;10134;50.952;6.930;2022-10-16T05:36:40;15.70;99.90
19945;DHT22;10134;50.952;6.930;2022-10-16T05:39:07;15.60;99.90
19945;DHT22;10134;50.952;6.930;2022-10-16T05:41:34;15.60;99.90
19945;DHT22;10134;50.952;6.930;2022-10-16T05:44:05;15.60;99.90
19945;DHT22;10134;50.952;6.930;2022-10-16T05:46:33;15.60;99.90
19945;DHT22;10134;50.952;6.930;2022-10-16T05:49:00;15.60;99.90
19945;DHT22;10134;50.952;6.930;2022-10-16T05:51:27;15.60;99.90
19945;DHT22;10134;50.952;6.930;2022-10-16T05:53:58;15.60;99.90
19945;DHT22;10134;50.952;6.930;2022-10-16T05:56:25;15.60;99.90
19945;DHT22;10134;50.952;6.930;2022-10-16T05:58:52;15.60;99.90
19945;DHT22;10134;50.952;6.930;2022-10-16T06:01:19;15.60;99.90
19945;DHT22;10134;50.952;6.930;2022-10-16T06:03:48;15.60;99.90
19945;DHT22;10134;50.952;6.930;2022-10-16T06:06:21;15.60;99.90
19945;DHT22;10134;50.952;6.930;2022-10-16T06:08:49;15.50;99.90
19945;DHT22;10134;50.952;6.930;2022-10-16T06:11:19;15.50;99.90
19945;DHT22;10134;50.952;6.930;2022-10-16T06:13:55;15.50;99.90
19945;DHT22;10134;50.952;6.930;2022-10-16T06:16:25;15.50;99.90
19945;DHT22;10134;50.952;6.930;2022-10-16T06:18:53;15.50;99.90
19945;DHT22;10134;50.952;6.930;2022-10-16T06:21:22;15.50;99.90
19945;DHT22;10134;50.952;6.930;2022-10-16T06:23:52;15.50;99.90
19945;DHT22;10134;50.952;6.930;2022-10-16T06:26:22;15.50;99.90
19945;DHT22;10134;50.952;6.930;2022-10-16T06:28:49;15.50;99.90
19945;DHT22;10134;50.952;6.930;2022-10-16T06:31:17;15.60;99.90
19945;DHT22;10134;50.952;6.930;2022-10-16T06:33:45;15.60;99.90
19945;DHT22;10134;50.952;6.930;2022-10-16T06:36:15;15.60;99.90
19945;DHT22;10134;50.952;6.930;2022-10-16T06:38:44;15.60;99.90
19945;DHT22;10134;50.952;6.930;2022-10-16T06:41:14;15.70;99.90
19945;DHT22;10134;50.952;6.930;2022-10-16T06:43:42;15.70;99.90
19945;DHT22;10134;50.952;6.930;2022-10-16T06:46:13;15.70;99.90
19945;DHT22;10134;50.952;6.930;2022-10-16T06:48:42;15.80;99.90
19945;DHT22;10134;50.952;6.930;2022-10-16T06:51:15;15.80;99.90
19945;DHT22;10134;50.952;6.930;2022-10-16T06:53:45;15.80;99.90
19945;DHT22;10134;50.952;6.930;2022-10-16T06:56:29;15.90;99.90
19945;DHT22;10134;50.952;6.930;2022-10-16T06:58:58;15.90;99.90
19945;DHT22;10134;50.952;6.930;2022-10-16T07:01:26;16.00;99.90
19945;DHT22;10134;50.952;6.930;2022-10-16T07:03:53;16.00;99.90
19945;DHT22;10134;50.952;6.930;2022-10-16T07:06:23;16.00;99.90
19945;DHT22;10134;50.952;6.930;2022-10-16T07:08:51;16.10;99.90
19945;DHT22;10134;50.952;6.930;2022-10-16T07:11:20;16.10;99.90
19945;DHT22;10134;50.952;6.930;2022-10-16T07:13:49;16.20;99.90
19945;DHT22;10134;50.952;6.930;2022-10-16T07:16:24;16.20;99.90
19945;DHT22;10134;50.952;6.930;2022-10-16T07:18:54;16.20;99.90
19945;DHT22;10134;50.952;6.930;2022-10-16T07:21:27;16.20;99.90
19945;DHT22;10134;50.952;6.930;2022-10-16T07:23:57;16.30;99.90
19945;DHT22;10134;50.952;6.930;2022-10-16T07:26:26;16.30;99.90
19945;DHT22;10134;50.952;6.930;2022-10-16T07:28:54;16.30;99.90
19945;DHT22;10134;50.952;6.930;2022-10-16T07:31:22;16.40;99.90
19945;DHT22;10134;50.952;6.930;2022-10-16T07:33:50;16.40;99.90
19945;DHT22;10134;50.952;6.930;2022-10-16T07:36:19;16.30;99.90
19945;DHT22;10134;50.952;6.930;2022-10-16T07:38:47;16.30;99.90
19945;DHT22;10134;50.952;6.930;2022-10-16T07:41:17;16.30;99.90
19945;DHT22;10134;50.952;6.930;2022-10-16T07:43:46;16.30;99.90
19945;DHT22;10134;50.952;6.930;2022-10-16T07:46:14;16.30;99.90
19945;DHT22;10134;50.952;6.930;2022-10-16T07:48:44;16.20;99.90
19945;DHT22;10134;50.952;6.930;2022-10-16T07:51:16;16.20;99.90
19945;DHT22;10134;50.952;6.930;2022-10-16T07:53:45;16.20;99.90
19945;DHT22;10134;50.952;6.930;2022-10-16T07:56:12;16.20;99.90
19945;DHT22;10134;50.952;6.930;2022-10-16T07:58:40;16.20;99.90
19945;DHT22;10134;50.952;6.930;2022-10-16T08:01:09;16.20;99.90
19945;DHT22;10134;50.952;6.930;2022-10-16T08:03:37;16.20;99.90
19945;DHT22;10134;50.952;6.930;2022-10-16T08:06:05;16.20;99.90
19945;DHT22;10134;50.952;6.930;2022-10-16T08:08:32;16.20;99.90
19945;DHT22;10134;50.952;6.930;2022-10-16T08:10:59;16.20;99.90
19945;DHT22;10134;50.952;6.930;2022-10-16T08:13:26;16.20;99.90
19945;DHT22;10134;50.952;6.930;2022-10-16T08:15:54;16.30;99.90
19945;DHT22;10134;50.952;6.930;2022-10-16T08:18:22;16.30;99.90
19945;DHT22;10134;50.952;6.930;2022-10-16T08:20:57;16.30;99.90
19945;DHT22;10134;50.952;6.930;2022-10-16T08:23:26;16.40;99.90
19945;DHT22;10134;50.952;6.930;2022-10-16T08:25:54;16.40;99.90
19945;DHT22;10134;50.952;6.930;2022-10-16T08:28:22;16.50;99.90
19945;DHT22;10134;50.952;6.930;2022-10-16T08:30:50;16.50;99.90
19945;DHT22;10134;50.952;6.930;2022-10-16T08:33:17;16.50;99.90
19945;DHT22;10134;50.952;6.930;2022-10-16T08:35:52;16.60;99.90
19945;DHT22;10134;50.952;6.930;2022-10-16T08:38:20;16.60;99.90
19945;DHT22;10134;50.952;6.930;2022-10-16T08:40:47;16.70;99.90
19945;DHT22;10134;50.952;6.930;2022-10-16T08:46:21;16.70;99.90
19945;DHT22;10134;50.952;6.930;2022-10-16T08:48:54;16.80;99.90
19945;DHT22;10134;50.952;6.930;2022-10-16T08:51:24;16.80;99.90
19945;DHT22;10134;50.952;6.930;2022-10-16T08:53:57;16.90;99.90
19945;DHT22;10134;50.952;6.930;2022-10-16T08:56:26;16.90;99.90
19945;DHT22;10134;50.952;6.930;2022-10-16T08:58:54;16.90;99.90
19945;DHT22;10134;50.952;6.930;2022-10-16T09:01:45;17.00;99.90
19945;DHT22;10134;50.952;6.930;2022-10-16T09:12:16;17.10;99.90
19945;DHT22;10134;50.952;6.930;2022-10-16T09:18:01;17.20;99.90
19945;DHT22;10134;50.952;6.930;2022-10-16T09:20:53;17.30;99.90
19945;DHT22;10134;50.952;6.930;2022-10-16T09:23:29;17.30;99.90
19945;DHT22;10134;50.952;6.930;2022-10-16T09:25:58;17.40;99.90
19945;DHT22;10134;50.952;6.930;2022-10-16T09:28:26;17.40;99.90
19945;DHT22;10134;50.952;6.930;2022-10-16T09:30:53;17.40;99.90
19945;DHT22;10134;50.952;6.930;2022-10-16T09:33:25;17.50;99.90
19945;DHT22;10134;50.952;6.930;2022-10-16T09:35:56;17.50;99.90
19945;DHT22;10134;50.952;6.930;2022-10-16T09:38:28;17.50;99.90
19945;DHT22;10134;50.952;6.930;2022-10-16T09:40:58;17.60;99.90
19945;DHT22;10134;50.952;6.930;2022-10-16T09:46:24;17.60;99.90
19945;DHT22;10134;50.952;6.930;2022-10-16T09:48:54;17.60;99.90
19945;DHT22;10134;50.952;6.930;2022-10-16T09:51:26;17.60;99.90
19945;DHT22;10134;50.952;6.930;2022-10-16T09:54:02;17.70;99.90
19945;DHT22;10134;50.952;6.930;2022-10-16T09:56:39;17.70;99.90
19945;DHT22;10134;50.952;6.930;2022-10-16T10:04:11;17.90;99.90
19945;DHT22;10134;50.952;6.930;2022-10-16T10:06:50;17.90;99.90
19945;DHT22;10134;50.952;6.930;2022-10-16T10:09:37;18.00;99.90
19945;DHT22;10134;50.952;6.930;2022-10-16T10:12:06;18.00;99.90
19945;DHT22;10134;50.952;6.930;2022-10-16T10:14:50;18.00;99.90
19945;DHT22;10134;50.952;6.930;2022-10-16T10:19:52;18.10;99.90
19945;DHT22;10134;50.952;6.930;2022-10-16T10:22:32;18.20;99.90
19945;DHT22;10134;50.952;6.930;2022-10-16T10:36:16;18.70;99.90
19945;DHT22;10134;50.952;6.930;2022-10-16T10:38:51;18.80;99.90
19945;DHT22;10134;50.952;6.930;2022-10-16T10:44:07;18.90;99.90
19945;DHT22;10134;50.952;6.930;2022-10-16T10:46:42;18.90;99.90
19945;DHT22;10134;50.952;6.930;2022-10-16T10:49:31;19.00;99.90
19945;DHT22;10134;50.952;6.930;2022-10-16T10:57:22;19.10;99.90
19945;DHT22;10134;50.952;6.930;2022-10-16T11:02:36;19.20;99.90
19945;DHT22;10134;50.952;6.930;2022-10-16T11:08:00;19.20;99.90
19945;DHT22;10134;50.952;6.930;2022-10-16T11:10:42;19.20;99.90
19945;DHT22;10134;50.952;6.930;2022-10-16T11:15:47;19.20;99.90
19945;DHT22;10134;50.952;6.930;2022-10-16T11:18:23;19.20;99.90
19945;DHT22;10134;50.952;6.930;2022-10-16T11:20:59;19.20;99.90
19945;DHT22;10134;50.952;6.930;2022-10-16T11:23:53;19.20;99.90
19945;DHT22;10134;50.952;6.930;2022-10-16T11:26:24;19.20;99.90
19945;DHT22;10134;50.952;6.930;2022-10-16T11:28:54;19.30;99.90
19945;DHT22;10134;50.952;6.930;2022-10-16T11:31:43;19.30;99.90
19945;DHT22;10134;50.952;6.930;2022-10-16T11:37:12;19.30;99.90
19945;DHT22;10134;50.952;6.930;2022-10-16T11:39:42;19.40;99.90
19945;DHT22;10134;50.952;6.930;2022-10-16T11:45:08;19.30;99.90
19945;DHT22;10134;50.952;6.930;2022-10-16T11:47:45;19.40;99.90
19945;DHT22;10134;50.952;6.930;2022-10-16T11:50:39;19.40;99.90
19945;DHT22;10134;50.952;6.930;2022-10-16T11:56:21;19.40;99.90
19945;DHT22;10134;50.952;6.930;2022-10-16T12:01:51;19.40;99.90
19945;DHT22;10134;50.952;6.930;2022-10-16T12:04:30;19.40;99.90
19945;DHT22;10134;50.952;6.930;2022-10-16T12:07:13;19.40;99.90
19945;DHT22;10134;50.952;6.930;2022-10-16T12:09:41;19.40;99.90
19945;DHT22;10134;50.952;6.930;2022-10-16T12:12:39;19.50;99.90
19945;DHT22;10134;50.952;6.930;2022-10-16T12:15:22;19.60;99.90
19945;DHT22;10134;50.952;6.930;2022-10-16T12:18:21;19.60;99.90
19945;DHT22;10134;50.952;6.930;2022-10-16T12:20:57;19.70;99.90
19945;DHT22;10134;50.952;6.930;2022-10-16T12:23:56;19.70;99.90
19945;DHT22;10134;50.952;6.930;2022-10-16T12:26:28;19.70;99.90
19945;DHT22;10134;50.952;6.930;2022-10-16T12:29:09;19.70;99.90
19945;DHT22;10134;50.952;6.930;2022-10-16T12:31:44;19.70;99.90
19945;DHT22;10134;50.952;6.930;2022-10-16T12:34:26;19.80;99.90
19945;DHT22;10134;50.952;6.930;2022-10-16T12:36:55;19.80;99.90
19945;DHT22;10134;50.952;6.930;2022-10-16T12:39:35;19.90;99.90
19945;DHT22;10134;50.952;6.930;2022-10-16T12:42:05;19.90;99.90
19945;DHT22;10134;50.952;6.930;2022-10-16T12:44:35;20.00;99.90
19945;DHT22;10134;50.952;6.930;2022-10-16T12:47:03;20.00;99.90
19945;DHT22;10134;50.952;6.930;2022-10-16T12:49:36;20.00;99.90
19945;DHT22;10134;50.952;6.930;2022-10-16T12:52:05;20.00;99.90
19945;DHT22;10134;50.952;6.930;2022-10-16T12:54:51;20.10;99.90
19945;DHT22;10134;50.952;6.930;2022-10-16T13:05:52;20.00;99.90
19945;DHT22;10134;50.952;6.930;2022-10-16T13:17:09;20.10;99.90
19945;DHT22;10134;50.952;6.930;2022-10-16T13:24:55;20.20;99.90
19945;DHT22;10134;50.952;6.930;2022-10-16T13:30:16;20.20;99.90
19945;DHT22;10134;50.952;6.930;2022-10-16T13:32:50;20.20;99.90
19945;DHT22;10134;50.952;6.930;2022-10-16T13:35:29;20.20;99.90
19945;DHT22;10134;50.952;6.930;2022-10-16T13:38:15;20.20;99.90
19945;DHT22;10134;50.952;6.930;2022-10-16T13:41:01;20.20;99.90
19945;DHT22;10134;50.952;6.930;2022-10-16T13:43:39;20.20;99.90
19945;DHT22;10134;50.952;6.930;2022-10-16T13:46:13;20.30;99.90
19945;DHT22;10134;50.952;6.930;2022-10-16T13:48:41;20.30;99.90
19945;DHT22;10134;50.952;6.930;2022-10-16T13:51:17;20.20;99.90
19945;DHT22;10134;50.952;6.930;2022-10-16T13:53:46;20.30;99.90
19945;DHT22;10134;50.952;6.930;2022-10-16T13:56:19;20.30;99.90
19945;DHT22;10134;50.952;6.930;2022-10-16T13:58:58;20.30;99.90
19945;DHT22;10134;50.952;6.930;2022-10-16T14:01:42;20.40;99.90
19945;DHT22;10134;50.952;6.930;2022-10-16T14:04:12;20.40;99.90
19945;DHT22;10134;50.952;6.930;2022-10-16T14:06:43;20.50;99.90
19945;DHT22;10134;50.952;6.930;2022-10-16T14:09:27;20.50;99.90
19945;DHT22;10134;50.952;6.930;2022-10-16T14:12:06;20.50;99.90
19945;DHT22;10134;50.952;6.930;2022-10-16T14:14:45;20.50;99.90
19945;DHT22;10134;50.952;6.930;2022-10-16T14:19:59;20.40;99.90
19945;DHT22;10134;50.952;6.930;2022-10-16T14:22:39;20.50;99.90
19945;DHT22;10134;50.952;6.930;2022-10-16T14:28:02;20.40;99.90
19945;DHT22;10134;50.952;6.930;2022-10-16T14:30:33;20.40;99.90
19945;DHT22;10134;50.952;6.930;2022-10-16T14:36:04;20.30;99.90
19945;DHT22;10134;50.952;6.930;2022-10-16T14:38:33;20.30;99.90
19945;DHT22;10134;50.952;6.930;2022-10-16T14:41:01;20.30;99.90
19945;DHT22;10134;50.952;6.930;2022-10-16T14:43:34;20.30;99.90
19945;DHT22;10134;50.952;6.930;2022-10-16T14:46:14;20.30;99.90
19945;DHT22;10134;50.952;6.930;2022-10-16T14:48:43;20.30;99.90
19945;DHT22;10134;50.952;6.930;2022-10-16T14:51:17;20.30;99.90
19945;DHT22;10134;50.952;6.930;2022-10-16T14:53:45;20.30;99.90
19945;DHT22;10134;50.952;6.930;2022-10-16T14:56:16;20.30;99.90
19945;DHT22;10134;50.952;6.930;2022-10-16T14:58:44;20.30;99.90
19945;DHT22;10134;50.952;6.930;2022-10-16T15:01:12;20.30;99.90
19945;DHT22;10134;50.952;6.930;2022-10-16T15:03:39;20.30;99.90
19945;DHT22;10134;50.952;6.930;2022-10-16T15:06:11;20.20;99.90
19945;DHT22;10134;50.952;6.930;2022-10-16T15:08:39;20.20;99.90
19945;DHT22;10134;50.952;6.930;2022-10-16T15:11:15;20.20;99.90
19945;DHT22;10134;50.952;6.930;2022-10-16T15:13:42;20.20;99.90
19945;DHT22;10134;50.952;6.930;2022-10-16T15:16:14;20.20;99.90
19945;DHT22;10134;50.952;6.930;2022-10-16T15:18:43;20.20;99.90
19945;DHT22;10134;50.952;6.930;2022-10-16T15:21:28;20.10;99.90
19945;DHT22;10134;50.952;6.930;2022-10-16T15:23:57;20.10;99.90
19945;DHT22;10134;50.952;6.930;2022-10-16T15:26:26;20.10;99.90
19945;DHT22;10134;50.952;6.930;2022-10-16T15:28:55;20.10;99.90
19945;DHT22;10134;50.952;6.930;2022-10-16T15:31:23;20.10;99.90
19945;DHT22;10134;50.952;6.930;2022-10-16T15:33:52;20.10;99.90
19945;DHT22;10134;50.952;6.930;2022-10-16T15:36:31;20.10;99.90
19945;DHT22;10134;50.952;6.930;2022-10-16T15:39:00;20.00;99.90
19945;DHT22;10134;50.952;6.930;2022-10-16T15:41:28;20.00;99.90
19945;DHT22;10134;50.952;6.930;2022-10-16T15:43:55;20.00;99.90
19945;DHT22;10134;50.952;6.930;2022-10-16T15:46:23;20.00;99.90
19945;DHT22;10134;50.952;6.930;2022-10-16T15:48:56;20.00;99.90
19945;DHT22;10134;50.952;6.930;2022-10-16T15:51:25;19.90;99.90
19945;DHT22;10134;50.952;6.930;2022-10-16T15:53:57;19.90;99.90
19945;DHT22;10134;50.952;6.930;2022-10-16T15:56:24;19.90;99.90
19945;DHT22;10134;50.952;6.930;2022-10-16T15:58:52;19.90;99.90
19945;DHT22;10134;50.952;6.930;2022-10-16T16:01:20;19.90;99.90
19945;DHT22;10134;50.952;6.930;2022-10-16T16:03:53;19.90;99.90
19945;DHT22;10134;50.952;6.930;2022-10-16T16:06:21;19.80;99.90
19945;DHT22;10134;50.952;6.930;2022-10-16T16:08:50;19.80;99.90
19945;DHT22;10134;50.952;6.930;2022-10-16T16:11:17;19.80;99.90
19945;DHT22;10134;50.952;6.930;2022-10-16T16:13:45;19.80;99.90
19945;DHT22;10134;50.952;6.930;2022-10-16T16:16:14;19.80;99.90
19945;DHT22;10134;50.952;6.930;2022-10-16T16:18:42;19.80;99.90
19945;DHT22;10134;50.952;6.930;2022-10-16T16:21:11;19.80;99.90
19945;DHT22;10134;50.952;6.930;2022-10-16T16:23:39;19.70;99.90
19945;DHT22;10134;50.952;6.930;2022-10-16T16:26:11;19.70;99.90
19945;DHT22;10134;50.952;6.930;2022-10-16T16:28:40;19.70;99.90
19945;DHT22;10134;50.952;6.930;2022-10-16T16:31:08;19.70;99.90
19945;DHT22;10134;50.952;6.930;2022-10-16T16:33:35;19.70;99.90
19945;DHT22;10134;50.952;6.930;2022-10-16T16:36:04;19.70;99.90
19945;DHT22;10134;50.952;6.930;2022-10-16T16:38:39;19.70;99.90
19945;DHT22;10134;50.952;6.930;2022-10-16T16:41:14;19.60;99.90
19945;DHT22;10134;50.952;6.930;2022-10-16T16:43:41;19.60;99.90
19945;DHT22;10134;50.952;6.930;2022-10-16T16:46:09;19.60;99.90
19945;DHT22;10134;50.952;6.930;2022-10-16T16:48:37;19.60;99.90
19945;DHT22;10134;50.952;6.930;2022-10-16T16:51:10;19.60;99.90
19945;DHT22;10134;50.952;6.930;2022-10-16T16:53:43;19.50;99.90
19945;DHT22;10134;50.952;6.930;2022-10-16T16:56:11;19.60;99.90
19945;DHT22;10134;50.952;6.930;2022-10-16T16:58:38;19.50;99.90
19945;DHT22;10134;50.952;6.930;2022-10-16T17:01:09;19.50;99.90
19945;DHT22;10134;50.952;6.930;2022-10-16T17:03:54;19.50;99.90
19945;DHT22;10134;50.952;6.930;2022-10-16T17:06:25;19.50;99.90
19945;DHT22;10134;50.952;6.930;2022-10-16T17:08:53;19.50;99.90
19945;DHT22;10134;50.952;6.930;2022-10-16T17:11:25;19.50;99.90
19945;DHT22;10134;50.952;6.930;2022-10-16T17:13:55;19.50;99.90
19945;DHT22;10134;50.952;6.930;2022-10-16T17:16:32;19.40;99.90
19945;DHT22;10134;50.952;6.930;2022-10-16T17:19:01;19.50;99.90
19945;DHT22;10134;50.952;6.930;2022-10-16T17:21:28;19.50;99.90
19945;DHT22;10134;50.952;6.930;2022-10-16T17:23:57;19.40;99.90
19945;DHT22;10134;50.952;6.930;2022-10-16T17:26:24;19.50;99.90
19945;DHT22;10134;50.952;6.930;2022-10-16T17:28:53;19.40;99.90
19945;DHT22;10134;50.952;6.930;2022-10-16T17:31:26;19.40;99.90
19945;DHT22;10134;50.952;6.930;2022-10-16T17:33:57;19.40;99.90
19945;DHT22;10134;50.952;6.930;2022-10-16T17:36:45;19.40;99.90
19945;DHT22;10134;50.952;6.930;2022-10-16T17:39:16;19.40;99.90
19945;DHT22;10134;50.952;6.930;2022-10-16T17:41:45;19.40;99.90
19945;DHT22;10134;50.952;6.930;2022-10-16T17:44:13;19.40;99.90
19945;DHT22;10134;50.952;6.930;2022-10-16T17:46:47;19.40;99.90
19945;DHT22;10134;50.952;6.930;2022-10-16T17:49:18;19.40;99.90
19945;DHT22;10134;50.952;6.930;2022-10-16T17:51:50;19.40;99.90
19945;DHT22;10134;50.952;6.930;2022-10-16T17:54:18;19.40;99.90